Jack Brusco — WDC3066 — position and weather

sailwx.info

Track history (hours):
 
Tides and Currents Weather Stations Pressure Air Temp Water Temp Dewpoint Dewpoint Depression Visibility Wind Speed Wind Dir Waves Ship Positions

Jack Brusco

Owner: Brusco Tug & Barge, Inc., Longview, WA. More information available from US FCC via Universal Licensing System and Coast Guard Vessel Documentation Center.

Last reported at 2015-Jul-06 12:33 UTC. Time now 2015-Jul-06 13:32 UTC.
Position N 48°22' W 124°05'.

Length 36 m; draft 5.2 m.

Type: Tug. MMSI: 3699086.

Date/timePositionNaut miles runAvg speedWind from/ knotsBaromVisibWave heightAir tempDewpointWater temp
2015-Jul-06 12:33N 48°22' W 124°05'13 8.6
2015-Jul-06 11:04N 48°18' W 123°46'5 9.3
2015-Jul-06 10:33N 48°17' W 123°39'9 9.1
2015-Jul-06 09:33N 48°17' W 123°26'1010.3
2015-Jul-06 08:33N 48°23' W 123°12'1110.6
2015-Jul-06 07:33N 48°33' W 123°13'10 8.8
2015-Jul-06 06:24N 48°43' W 123°12'910.0
2015-Jul-06 05:33N 48°48' W 123°00'9 9.0
2015-Jul-06 04:33N 48°54' W 123°10'9 9.4
2015-Jul-06 03:33N 49°00' W 123°21'9 8.6
2015-Jul-06 02:33N 49°08' W 123°26'9 9.2
2015-Jul-06 01:33N 49°17' W 123°27'9 8.5
2015-Jul-06 00:33N 49°26' W 123°28'2 2.3
2015-Jul-05 23:33N 49°28' W 123°29'0 0.0
2015-Jul-05 22:33N 49°28' W 123°29'8 8.0
2015-Jul-05 21:33N 49°20' W 123°27'1111.4
2015-Jul-05 20:33N 49°09' W 123°25'1111.2
2015-Jul-05 19:33N 49°00' W 123°15'1111.4
2015-Jul-05 18:33N 48°52' W 123°02'8 7.9
2015-Jul-05 17:33N 48°45' W 123°07'9 8.7
2015-Jul-05 16:33N 48°37' W 123°14'1010.4
2015-Jul-05 15:33N 48°27' W 123°10'1211.5
2015-Jul-05 14:32N 48°17' W 123°19'1111.5
2015-Jul-05 13:33N 48°12' W 123°34'22 9.1
2015-Jul-05 11:05N 48°16' W 124°07'610.8
2015-Jul-05 10:33N 48°18' W 124°15'1110.9
2015-Jul-05 09:33N 48°23' W 124°30'1010.2
2015-Jul-05 08:33N 48°26' W 124°45'40 9.9
2015-Jul-05 04:31N 47°46' W 124°48'1112.0
2015-Jul-05 03:33N 47°34' W 124°44'1211.9
2015-Jul-05 02:33N 47°23' W 124°40'1211.8
2015-Jul-05 01:33N 47°12' W 124°36'77 7.4
2015-Jul-04 15:06N 46°12' W 123°23'0 0.0
2015-Jul-04 14:31N 46°12' W 123°23'0 0.0
2015-Jul-04 13:33N 46°12' W 123°23'0 0.0
2015-Jul-04 12:33N 46°12' W 123°23'4 1.7
2015-Jul-04 10:08N 46°09' W 123°20'812.0
2015-Jul-04 09:30N 46°11' W 123°10'11 5.8
2015-Jul-04 07:33N 46°05' W 122°56'5 5.1
2015-Jul-04 06:30N 46°09' W 123°02'6 6.3
2015-Jul-04 05:33N 46°11' W 123°10'7 7.0
2015-Jul-04 04:33N 46°09' W 123°19'6 5.9
2015-Jul-04 03:33N 46°12' W 123°25'  
2015-Jun-27 02:17N 46°12' W 123°23'0 0.0
2015-Jun-27 01:27N 46°12' W 123°23'0 0.0
2015-Jun-27 00:16N 46°12' W 123°23'0 0.0
2015-Jun-26 23:26N 46°12' W 123°23'0 0.0
2015-Jun-26 22:26N 46°12' W 123°23'0 0.0
2015-Jun-26 21:26N 46°12' W 123°23'0 0.0
2015-Jun-26 20:32N 46°12' W 123°23'0 0.0
2015-Jun-26 19:27N 46°12' W 123°23'0 0.0
2015-Jun-26 18:32N 46°12' W 123°23'0 0.0
2015-Jun-26 17:29N 46°12' W 123°23'0 0.0
2015-Jun-26 16:22N 46°12' W 123°23'0 0.0
2015-Jun-26 15:26N 46°12' W 123°23'0 0.0
2015-Jun-26 14:33N 46°12' W 123°23'0 0.0
2015-Jun-26 13:32N 46°12' W 123°23'  
Track history (hours):
 
Tides and Currents Weather Stations Pressure Air Temp Water Temp Dewpoint Dewpoint Depression Visibility Wind Speed Wind Dir Waves Ship Positions

Jack Brusco

Owner: Brusco Tug & Barge, Inc., Longview, WA. More information available from US FCC via Universal Licensing System and Coast Guard Vessel Documentation Center.

Last reported at 2015-Jul-06 12:33 UTC. Time now 2015-Jul-06 13:32 UTC.
Position N 48°22' W 124°05'.

Length 36 m; draft 5.2 m.

Type: Tug. MMSI: 3699086.

Date/timePositionNaut miles runAvg speedWind from/ knotsBaromVisibWave heightAir tempDewpointWater temp
2015-Jul-06 12:33N 48°22' W 124°05'13 8.6
2015-Jul-06 11:04N 48°18' W 123°46'5 9.3
2015-Jul-06 10:33N 48°17' W 123°39'9 9.1
2015-Jul-06 09:33N 48°17' W 123°26'1010.3
2015-Jul-06 08:33N 48°23' W 123°12'1110.6
2015-Jul-06 07:33N 48°33' W 123°13'10 8.8
2015-Jul-06 06:24N 48°43' W 123°12'910.0
2015-Jul-06 05:33N 48°48' W 123°00'9 9.0
2015-Jul-06 04:33N 48°54' W 123°10'9 9.4
2015-Jul-06 03:33N 49°00' W 123°21'9 8.6
2015-Jul-06 02:33N 49°08' W 123°26'9 9.2
2015-Jul-06 01:33N 49°17' W 123°27'9 8.5
2015-Jul-06 00:33N 49°26' W 123°28'2 2.3
2015-Jul-05 23:33N 49°28' W 123°29'0 0.0
2015-Jul-05 22:33N 49°28' W 123°29'8 8.0
2015-Jul-05 21:33N 49°20' W 123°27'1111.4
2015-Jul-05 20:33N 49°09' W 123°25'1111.2
2015-Jul-05 19:33N 49°00' W 123°15'1111.4
2015-Jul-05 18:33N 48°52' W 123°02'8 7.9
2015-Jul-05 17:33N 48°45' W 123°07'9 8.7
2015-Jul-05 16:33N 48°37' W 123°14'1010.4
2015-Jul-05 15:33N 48°27' W 123°10'1211.5
2015-Jul-05 14:32N 48°17' W 123°19'1111.5
2015-Jul-05 13:33N 48°12' W 123°34'22 9.1
2015-Jul-05 11:05N 48°16' W 124°07'610.8
2015-Jul-05 10:33N 48°18' W 124°15'1110.9
2015-Jul-05 09:33N 48°23' W 124°30'1010.2
2015-Jul-05 08:33N 48°26' W 124°45'40 9.9
2015-Jul-05 04:31N 47°46' W 124°48'1112.0
2015-Jul-05 03:33N 47°34' W 124°44'1211.9
2015-Jul-05 02:33N 47°23' W 124°40'1211.8
2015-Jul-05 01:33N 47°12' W 124°36'77 7.4
2015-Jul-04 15:06N 46°12' W 123°23'0 0.0
2015-Jul-04 14:31N 46°12' W 123°23'0 0.0
2015-Jul-04 13:33N 46°12' W 123°23'0 0.0
2015-Jul-04 12:33N 46°12' W 123°23'4 1.7
2015-Jul-04 10:08N 46°09' W 123°20'812.0
2015-Jul-04 09:30N 46°11' W 123°10'11 5.8
2015-Jul-04 07:33N 46°05' W 122°56'5 5.1
2015-Jul-04 06:30N 46°09' W 123°02'6 6.3
2015-Jul-04 05:33N 46°11' W 123°10'7 7.0
2015-Jul-04 04:33N 46°09' W 123°19'6 5.9
2015-Jul-04 03:33N 46°12' W 123°25'  
2015-Jun-27 02:17N 46°12' W 123°23'0 0.0
2015-Jun-27 01:27N 46°12' W 123°23'0 0.0
2015-Jun-27 00:16N 46°12' W 123°23'0 0.0
2015-Jun-26 23:26N 46°12' W 123°23'0 0.0
2015-Jun-26 22:26N 46°12' W 123°23'0 0.0
2015-Jun-26 21:26N 46°12' W 123°23'0 0.0
2015-Jun-26 20:32N 46°12' W 123°23'0 0.0
2015-Jun-26 19:27N 46°12' W 123°23'0 0.0
2015-Jun-26 18:32N 46°12' W 123°23'0 0.0
2015-Jun-26 17:29N 46°12' W 123°23'0 0.0
2015-Jun-26 16:22N 46°12' W 123°23'0 0.0
2015-Jun-26 15:26N 46°12' W 123°23'0 0.0
2015-Jun-26 14:33N 46°12' W 123°23'0 0.0
2015-Jun-26 13:32N 46°12' W 123°23'  

Dump ship's entire track history